Bookmark and Share
Track history (hours):
 

Arctic Taglu

Last reported at 2014-Apr-20 23:33 UTC. Time now 2014-Apr-20 23:47 UTC.
Position N 49°09' W 123°02'.

Length 33 m; draft 6 m.

Type: Tug. MMSI: 316003483.

NotesDate/timePositionNaut miles runAvg speedWind from/ knotsBaromVisibWave heightAir tempDewpointWater temp
2014-Apr-20 23:33N 49°09' W 123°02'0 0.0
2014-Apr-20 22:33N 49°09' W 123°02'0 0.0
2014-Apr-20 21:33N 49°09' W 123°02'0 0.0
2014-Apr-20 20:33N 49°09' W 123°02'0 0.0
2014-Apr-20 19:33N 49°09' W 123°02'0 0.0
2014-Apr-20 18:33N 49°09' W 123°02'0 0.0
2014-Apr-20 17:33N 49°09' W 123°02'0 0.0
2014-Apr-20 16:33N 49°09' W 123°02'4 4.3
2014-Apr-20 15:34N 49°07' W 123°08'8 8.3
2014-Apr-20 14:34N 49°06' W 123°20'10 9.6
2014-Apr-20 13:33N 49°10' W 123°34'10 9.9
2014-Apr-20 12:33N 49°13' W 123°48'6 5.5
2014-Apr-20 11:32N 49°10' W 123°56'0 0.0
2014-Apr-20 10:26N 49°10' W 123°56'0 0.0
2014-Apr-20 09:32N 49°10' W 123°56'5 5.2
2014-Apr-20 08:33N 49°13' W 123°49'10 9.8
2014-Apr-20 07:33N 49°10' W 123°35'10 9.8
2014-Apr-20 06:33N 49°06' W 123°21'9 8.7
2014-Apr-20 05:33N 49°07' W 123°08'4 4.3
2014-Apr-20 04:33N 49°09' W 123°02'0 0.0
2014-Apr-20 03:33N 49°09' W 123°02'0 0.0
2014-Apr-20 02:33N 49°09' W 123°02'0 0.0
2014-Apr-20 01:33N 49°09' W 123°02'0 0.0
2014-Apr-20 00:33N 49°09' W 123°02'0 0.0
2014-Apr-19 23:33N 49°09' W 123°02'0 0.0
2014-Apr-19 22:33N 49°09' W 123°02'0 0.0
2014-Apr-19 21:33N 49°09' W 123°02'0 0.0
2014-Apr-19 20:33N 49°09' W 123°02'0 0.0
2014-Apr-19 19:33N 49°09' W 123°02'0 0.0
2014-Apr-19 18:33N 49°09' W 123°02'0 0.0
2014-Apr-19 17:33N 49°09' W 123°02'0 0.0
2014-Apr-19 16:33N 49°09' W 123°02'0 0.0
2014-Apr-19 15:33N 49°09' W 123°02'0 0.0
2014-Apr-19 14:33N 49°09' W 123°02'0 0.0
2014-Apr-19 13:33N 49°09' W 123°02'0 0.0
2014-Apr-19 12:33N 49°09' W 123°02'0 0.0
2014-Apr-19 11:33N 49°09' W 123°02'0 0.0
2014-Apr-19 10:33N 49°09' W 123°02'0 0.0
2014-Apr-19 09:33N 49°09' W 123°02'0 0.0
2014-Apr-19 08:33N 49°09' W 123°02'0 0.0
2014-Apr-19 07:33N 49°09' W 123°02'0 0.0
2014-Apr-19 06:33N 49°09' W 123°02'0 0.0
2014-Apr-19 05:33N 49°09' W 123°02'0 0.0
2014-Apr-19 04:33N 49°09' W 123°02'0 0.0
2014-Apr-19 03:33N 49°09' W 123°02'0 0.0
2014-Apr-19 02:33N 49°09' W 123°02'0 0.0
2014-Apr-19 01:33N 49°09' W 123°02'0 0.0
2014-Apr-19 00:33N 49°09' W 123°02'0 0.0
2014-Apr-18 23:33N 49°09' W 123°02'0 0.0
2014-Apr-18 22:33N 49°09' W 123°02'0 0.0
2014-Apr-18 21:33N 49°09' W 123°02'0 0.0
2014-Apr-18 20:33N 49°09' W 123°02'0 0.0
2014-Apr-18 19:33N 49°09' W 123°02'0 0.0
2014-Apr-18 18:33N 49°09' W 123°02'0 0.0
2014-Apr-18 17:33N 49°09' W 123°02'0 0.0
2014-Apr-18 16:33N 49°09' W 123°02'0 0.0
2014-Apr-18 15:33N 49°09' W 123°02'0 0.0
2014-Apr-18 14:33N 49°09' W 123°02'8 7.6
2014-Apr-18 13:33N 49°08' W 123°14'9 8.6
2014-Apr-18 12:33N 49°08' W 123°27'9 9.2
2014-Apr-18 11:33N 49°11' W 123°40'9 8.6
2014-Apr-18 10:33N 49°11' W 123°53'2 2.2
2014-Apr-18 09:33N 49°10' W 123°56'0 0.2
2014-Apr-18 08:33N 49°10' W 123°56'8 8.0
2014-Apr-18 07:33N 49°12' W 123°44'1010.0
2014-Apr-18 06:33N 49°08' W 123°29'9 9.0
2014-Apr-18 05:33N 49°07' W 123°16'8 7.9
2014-Apr-18 04:33N 49°08' W 123°04'1 1.2
2014-Apr-18 03:33N 49°09' W 123°02'0 0.0
2014-Apr-18 02:33N 49°09' W 123°02'0 0.0
2014-Apr-18 01:31N 49°09' W 123°02'0 0.0
2014-Apr-18 00:31N 49°09' W 123°02'0 0.0
2014-Apr-17 23:31N 49°09' W 123°02'0 0.0
2014-Apr-17 22:31N 49°09' W 123°02'0 0.0
2014-Apr-17 21:31N 49°09' W 123°02'0 0.0
2014-Apr-17 20:31N 49°09' W 123°02'0 0.0
2014-Apr-17 19:31N 49°09' W 123°02'0 0.0
2014-Apr-17 18:31N 49°09' W 123°02'0 0.0
2014-Apr-17 17:31N 49°09' W 123°02'0 0.0
2014-Apr-17 16:33N 49°09' W 123°02'0 0.0
2014-Apr-17 15:33N 49°09' W 123°02'0 0.0
2014-Apr-17 14:33N 49°09' W 123°02'5 4.6
2014-Apr-17 13:33N 49°07' W 123°08'9 9.1
2014-Apr-17 12:33N 49°06' W 123°22'10 9.6
2014-Apr-17 11:33N 49°10' W 123°36'10 9.6
2014-Apr-17 10:33N 49°13' W 123°50'5 4.7
2014-Apr-17 09:33N 49°10' W 123°56'0 0.0
2014-Apr-17 08:33N 49°10' W 123°56'6 6.5
2014-Apr-17 07:33N 49°13' W 123°47'1010.4
2014-Apr-17 06:33N 49°09' W 123°32'10 9.8
2014-Apr-17 05:33N 49°07' W 123°18'9 9.2
2014-Apr-17 04:33N 49°08' W 123°04'1 1.1
2014-Apr-17 03:33N 49°09' W 123°02'0 0.0
2014-Apr-17 02:33N 49°09' W 123°02'0 0.0
2014-Apr-17 01:32N 49°09' W 123°02'0 0.0
2014-Apr-17 00:32N 49°09' W 123°02'0 0.0
2014-Apr-16 23:32N 49°09' W 123°02'0 0.0
2014-Apr-16 22:32N 49°09' W 123°02'0 0.0
2014-Apr-16 21:32N 49°09' W 123°02'0 0.0
2014-Apr-16 20:32N 49°09' W 123°02'0 0.0
2014-Apr-16 19:32N 49°09' W 123°02'0 0.0
2014-Apr-16 18:32N 49°09' W 123°02'0 0.0
2014-Apr-16 17:32N 49°09' W 123°02'0 0.0
2014-Apr-16 16:32N 49°09' W 123°02'0 0.0
2014-Apr-16 15:32N 49°09' W 123°02'0 0.0
2014-Apr-16 14:34N 49°09' W 123°02'4 4.4
2014-Apr-16 13:33N 49°07' W 123°08'9 9.3
2014-Apr-16 12:33N 49°07' W 123°22'10 9.6
2014-Apr-16 11:33N 49°10' W 123°36'9 9.4
2014-Apr-16 10:33N 49°13' W 123°50'5 4.9
2014-Apr-16 09:33N 49°10' W 123°56'0 0.0
2014-Apr-16 08:33N 49°10' W 123°56'6 6.3
2014-Apr-16 07:33N 49°13' W 123°47'10 9.7
2014-Apr-16 06:33N 49°10' W 123°34'1010.1
2014-Apr-16 05:33N 49°06' W 123°19'10 9.7
2014-Apr-16 04:33N 49°07' W 123°04'2 1.9
2014-Apr-16 03:33N 49°09' W 123°02'0 0.0
2014-Apr-16 02:32N 49°09' W 123°02'0 0.0
2014-Apr-16 01:32N 49°09' W 123°02'0 0.0
2014-Apr-16 00:32N 49°09' W 123°02'0 0.0
2014-Apr-15 23:32N 49°09' W 123°02'0 0.0
2014-Apr-15 22:32N 49°09' W 123°02'0 0.0
2014-Apr-15 21:32N 49°09' W 123°02'0 0.0
2014-Apr-15 20:32N 49°09' W 123°02'0 0.0
2014-Apr-15 19:32N 49°09' W 123°02'0 0.0
2014-Apr-15 18:32N 49°09' W 123°02'0 0.0
2014-Apr-15 17:32N 49°09' W 123°02'0 0.0
2014-Apr-15 16:32N 49°09' W 123°02'0 0.0
2014-Apr-15 15:33N 49°09' W 123°02'0 0.1
2014-Apr-15 14:33N 49°09' W 123°02'3 1.3
2014-Apr-15 12:34N 49°07' W 123°05'9 9.4
2014-Apr-15 11:34N 49°06' W 123°20'1010.2
2014-Apr-15 10:34N 49°10' W 123°34'1010.0
2014-Apr-15 09:34N 49°13' W 123°49'5 5.4
2014-Apr-15 08:34N 49°10' W 123°56'0 0.0
2014-Apr-15 07:34N 49°10' W 123°56'6 5.9
2014-Apr-15 06:34N 49°13' W 123°48'1010.0
2014-Apr-15 05:34N 49°10' W 123°33'19 9.7
2014-Apr-15 03:34N 49°08' W 123°04'1 1.4
2014-Apr-15 02:34N 49°09' W 123°02'0 0.0
2014-Apr-15 01:30N 49°09' W 123°02'0 0.0
2014-Apr-15 00:33N 49°09' W 123°02'0 0.0
2014-Apr-14 23:33N 49°09' W 123°02'0 0.0
2014-Apr-14 22:33N 49°09' W 123°02'0 0.0
2014-Apr-14 21:33N 49°09' W 123°02'0 0.0
2014-Apr-14 20:33N 49°09' W 123°02'0 0.0
2014-Apr-14 19:33N 49°09' W 123°02'0 0.0
2014-Apr-14 18:33N 49°09' W 123°02'0 0.0
2014-Apr-14 17:33N 49°09' W 123°02'0 0.0
2014-Apr-14 16:33N 49°09' W 123°02'0 0.0
2014-Apr-14 15:33N 49°09' W 123°02'0 0.0
2014-Apr-14 14:30N 49°09' W 123°02'0 0.0
2014-Apr-14 13:33N 49°09' W 123°02'0 0.0
2014-Apr-14 11:33N 49°09' W 123°02'0 0.0
2014-Apr-14 10:30N 49°09' W 123°02'0 0.0
2014-Apr-14 09:30N 49°09' W 123°02'0 0.0
2014-Apr-14 08:33N 49°09' W 123°02'0 0.0
2014-Apr-14 07:33N 49°09' W 123°02'0 0.0
2014-Apr-14 06:33N 49°09' W 123°02'0 0.0
2014-Apr-14 05:32N 49°09' W 123°02'0 0.0
2014-Apr-13 22:33N 49°09' W 123°02'0 0.0
2014-Apr-13 21:33N 49°09' W 123°02'0 0.0
2014-Apr-13 20:33N 49°09' W 123°02'0 0.0
2014-Apr-13 19:33N 49°09' W 123°02'0 0.0
2014-Apr-13 18:33N 49°09' W 123°02'0 0.0
2014-Apr-13 17:33N 49°09' W 123°02'0 0.0
2014-Apr-13 16:32N 49°09' W 123°02'0 0.0
2014-Apr-13 15:33N 49°09' W 123°02'0 0.0
2014-Apr-13 14:33N 49°09' W 123°02'0 0.0
2014-Apr-13 13:33N 49°09' W 123°02'0 0.0
2014-Apr-13 12:33N 49°09' W 123°02'0 0.0
2014-Apr-13 11:32N 49°09' W 123°02'0 0.0
2014-Apr-13 10:33N 49°09' W 123°02'0 0.0
2014-Apr-13 09:33N 49°09' W 123°02'0 0.0
2014-Apr-13 08:33N 49°09' W 123°02'0 0.0
2014-Apr-13 07:33N 49°09' W 123°02'0 0.0
2014-Apr-13 06:33N 49°09' W 123°02'0 0.0
2014-Apr-13 05:32N 49°09' W 123°02'0 0.0
2014-Apr-13 04:33N 49°09' W 123°02'0 0.0
2014-Apr-13 03:33N 49°09' W 123°02'0 0.0
2014-Apr-13 02:33N 49°09' W 123°02'0 0.0
2014-Apr-13 01:33N 49°09' W 123°02'0 0.0
2014-Apr-13 00:32N 49°09' W 123°02'0 0.0
2014-Apr-12 23:33N 49°09' W 123°02'0 0.0
2014-Apr-12 22:33N 49°09' W 123°02'0 0.0
2014-Apr-12 21:33N 49°09' W 123°02'0 0.0
2014-Apr-12 20:33N 49°09' W 123°02'0 0.0
2014-Apr-12 19:33N 49°09' W 123°02'0 0.0
2014-Apr-12 18:33N 49°09' W 123°02'0 0.0
2014-Apr-12 17:33N 49°09' W 123°02'0 0.0
2014-Apr-12 16:33N 49°09' W 123°02'0 0.0
2014-Apr-12 15:33N 49°09' W 123°02'0 0.0
2014-Apr-12 14:34N 49°09' W 123°02'1 1.0
2014-Apr-12 13:34N 49°08' W 123°03'9 8.9
2014-Apr-12 12:33N 49°07' W 123°17'10 9.9
2014-Apr-12 11:33N 49°09' W 123°32'1110.5
2014-Apr-12 10:33N 49°13' W 123°47'6 6.4
2014-Apr-12 09:33N 49°10' W 123°56'0 0.0
2014-Apr-12 08:34N 49°10' W 123°56'5 5.4
2014-Apr-12 07:33N 49°13' W 123°49'9 9.5
2014-Apr-12 06:34N 49°10' W 123°35'10 9.8
2014-Apr-12 05:34N 49°07' W 123°21'1110.7
2014-Apr-12 04:33N 49°07' W 123°05'2 2.4
2014-Apr-12 03:33N 49°09' W 123°02'0 0.1
2014-Apr-12 02:33N 49°09' W 123°02'0 0.0
2014-Apr-12 01:33N 49°09' W 123°02'0 0.0
2014-Apr-12 00:33N 49°09' W 123°02'0 0.0
2014-Apr-11 23:34N 49°09' W 123°02'0 0.0
2014-Apr-11 22:34N 49°09' W 123°02'0 0.0
2014-Apr-11 21:34N 49°09' W 123°02'0 0.0
2014-Apr-11 20:34N 49°09' W 123°02'0 0.0
2014-Apr-11 19:34N 49°09' W 123°02'0 0.0
2014-Apr-11 18:34N 49°09' W 123°02'0 0.0
2014-Apr-11 17:33N 49°09' W 123°02'0 0.0
2014-Apr-11 16:33N 49°09' W 123°02'0 0.0
2014-Apr-11 15:34N 49°09' W 123°02'0 0.0
2014-Apr-11 14:34N 49°09' W 123°02'2 2.0
2014-Apr-11 13:33N 49°07' W 123°04'9 9.0
2014-Apr-11 12:33N 49°06' W 123°18'1010.3
2014-Apr-11 11:33N 49°09' W 123°33'1010.2
2014-Apr-11 10:33N 49°13' W 123°48'6 6.1
2014-Apr-11 09:34N 49°10' W 123°56'0 0.0
2014-Apr-11 08:33N 49°10' W 123°56'5 5.2
2014-Apr-11 07:33N 49°13' W 123°49'10 9.9
2014-Apr-11 06:33N 49°11' W 123°35'1010.0
2014-Apr-11 05:33N 49°07' W 123°21'1110.8
2014-Apr-11 04:34N 49°08' W 123°04'2 1.7
2014-Apr-11 03:34N 49°09' W 123°02'0 0.0
2014-Apr-11 02:34N 49°09' W 123°02'0 0.0
2014-Apr-11 01:34N 49°09' W 123°02'0 0.0
2014-Apr-11 00:33N 49°09' W 123°02'0 0.0
2014-Apr-10 23:33N 49°09' W 123°02'  

Dump ship's entire track history

sailing weather and tide predictions

Arctic Taglu — CY8968 — position and weather